Time;durP1;ratioP1;P1;durP2;ratioP2;P2;SDS_P1;SDS_P2;PMS_P1;PMS_P2;Temp;Humidity;BMP_temperature;BMP_pressure;BME280_temperature;BME280_humidity;BME280_pressure;Samples;Min_cycle;Max_cycle;Signal;HPM_P1;HPM_P2
2023/11/21 00:01:03;;;;;;;13.50;7.43;;;8.50;99.90;;;;;;5094060;28;20230;-65
2023/11/21 00:03:30;;;;;;;17.02;7.70;;;8.60;99.90;;;;;;5093015;28;20197;-64
2023/11/21 00:05:58;;;;;;;12.55;6.95;;;8.60;99.90;;;;;;5093234;28;20567;-64
2023/11/21 00:08:25;;;;;;;9.95;6.90;;;8.50;99.90;;;;;;5093255;28;20200;-65
2023/11/21 00:10:52;;;;;;;15.18;7.50;;;8.50;99.90;;;;;;5092983;28;20207;-64
2023/11/21 00:13:19;;;;;;;12.05;7.25;;;8.50;99.90;;;;;;5092999;28;20189;-65
2023/11/21 00:15:45;;;;;;;17.63;7.97;;;8.50;99.90;;;;;;5093030;28;20228;-64
2023/11/21 00:18:12;;;;;;;12.70;7.45;;;8.50;99.90;;;;;;5093010;28;20541;-65
2023/11/21 00:20:39;;;;;;;15.40;8.25;;;8.50;99.90;;;;;;5092929;28;20669;-64
2023/11/21 00:23:07;;;;;;;18.23;7.78;;;8.50;99.90;;;;;;5092920;28;20570;-63
2023/11/21 00:25:34;;;;;;;14.23;7.75;;;8.50;99.90;;;;;;5093060;28;20231;-64
2023/11/21 00:28:01;;;;;;;19.52;8.95;;;8.50;99.90;;;;;;5094699;28;20650;-63
2023/11/21 00:30:28;;;;;;;12.88;8.05;;;8.60;99.90;;;;;;5097298;28;20192;-64
2023/11/21 00:32:55;;;;;;;14.15;8.27;;;8.60;99.90;;;;;;5097409;28;20619;-64
2023/11/21 00:35:22;;;;;;;15.95;8.02;;;8.50;99.90;;;;;;5097159;28;20709;-64
2023/11/21 00:37:49;;;;;;;20.80;9.70;;;8.60;99.90;;;;;;5097840;28;20231;-64
2023/11/21 00:40:20;;;;;;;15.48;8.38;;;8.60;99.90;;;;;;5097318;28;20200;-65
2023/11/21 00:42:47;;;;;;;12.48;7.95;;;8.50;99.90;;;;;;5097403;28;20192;-64
2023/11/21 00:45:14;;;;;;;13.18;9.35;;;8.50;99.90;;;;;;5097199;28;20220;-64
2023/11/21 00:47:42;;;;;;;16.33;8.30;;;8.50;99.90;;;;;;5097497;28;20200;-65
2023/11/21 00:50:09;;;;;;;16.88;8.60;;;8.50;99.90;;;;;;5097058;28;20200;-64
2023/11/21 00:52:36;;;;;;;15.88;8.60;;;8.50;99.90;;;;;;5097004;28;20607;-64
2023/11/21 00:55:03;;;;;;;21.13;8.80;;;8.50;99.90;;;;;;5096664;28;20224;-65
2023/11/21 00:57:31;;;;;;;18.33;8.52;;;8.50;99.90;;;;;;5096910;28;20224;-65
2023/11/21 00:59:58;;;;;;;25.60;10.15;;;8.50;99.90;;;;;;5096657;28;20204;-64
2023/11/21 01:02:25;;;;;;;15.18;8.05;;;8.50;99.90;;;;;;5097118;28;20211;-65
2023/11/21 01:04:52;;;;;;;18.48;9.80;;;8.50;99.90;;;;;;5096700;28;20227;-64
2023/11/21 01:07:20;;;;;;;23.45;10.25;;;8.50;99.90;;;;;;5097026;28;20197;-66
2023/11/21 01:09:47;;;;;;;17.45;9.93;;;8.50;99.90;;;;;;5096980;28;20617;-65
2023/11/21 01:12:13;;;;;;;25.27;10.70;;;8.50;99.90;;;;;;5096420;28;20212;-65
2023/11/21 01:14:41;;;;;;;16.13;10.00;;;8.50;99.90;;;;;;5096615;28;20220;-65
2023/11/21 01:17:08;;;;;;;18.05;9.98;;;8.50;99.90;;;;;;5096902;28;20227;-65
2023/11/21 01:19:35;;;;;;;17.42;9.43;;;8.50;99.90;;;;;;5096463;28;20228;-64
2023/11/21 01:22:02;;;;;;;19.60;9.68;;;8.50;99.90;;;;;;5096470;28;20669;-64
2023/11/21 01:24:29;;;;;;;20.80;11.57;;;8.50;99.90;;;;;;5096275;28;20727;-64
2023/11/21 01:26:55;;;;;;;18.48;10.20;;;8.50;99.90;;;;;;5096410;28;20215;-65
2023/11/21 01:29:22;;;;;;;20.02;10.48;;;8.50;99.90;;;;;;5096417;28;20204;-64
2023/11/21 01:31:51;;;;;;;21.83;10.93;;;8.50;99.90;;;;;;5096416;28;20196;-65
2023/11/21 01:34:18;;;;;;;25.00;11.07;;;8.50;99.90;;;;;;5097666;28;20215;-65
2023/11/21 01:36:47;;;;;;;21.70;12.00;;;8.50;99.90;;;;;;5097010;28;20209;-63
2023/11/21 01:39:15;;;;;;;17.35;10.52;;;8.50;99.90;;;;;;5095333;28;20200;-65
2023/11/21 01:41:43;;;;;;;26.33;13.20;;;8.50;99.90;;;;;;5096499;28;20227;-64
2023/11/21 01:44:10;;;;;;;19.50;11.18;;;8.50;99.90;;;;;;5096189;28;20214;-64
2023/11/21 01:46:38;;;;;;;20.52;11.50;;;8.50;99.90;;;;;;5096242;28;20208;-65
2023/11/21 01:49:06;;;;;;;20.10;11.40;;;8.50;99.90;;;;;;5096090;28;20665;-63
2023/11/21 01:51:34;;;;;;;23.90;12.70;;;8.50;99.90;;;;;;5097124;28;20254;-65
2023/11/21 01:54:00;;;;;;;23.85;12.40;;;8.50;99.90;;;;;;5097723;28;20282;-65
2023/11/21 01:56:28;;;;;;;21.05;12.10;;;8.40;99.90;;;;;;5097238;28;20207;-66
2023/11/21 01:58:54;;;;;;;24.65;13.13;;;8.40;99.90;;;;;;5096797;28;20223;-64
2023/11/21 02:01:21;;;;;;;24.30;12.55;;;8.50;99.90;;;;;;5096185;28;20550;-65
2023/11/21 02:03:48;;;;;;;23.55;13.02;;;8.40;99.90;;;;;;5095900;28;20201;-64
2023/11/21 02:06:16;;;;;;;23.63;12.55;;;8.40;99.90;;;;;;5095520;28;20220;-64
2023/11/21 02:08:44;;;;;;;30.13;13.73;;;8.40;99.90;;;;;;5095519;28;20203;-64
2023/11/21 02:11:12;;;;;;;30.08;12.90;;;8.40;99.90;;;;;;5095320;28;20304;-63
2023/11/21 02:13:41;;;;;;;22.73;12.25;;;8.40;99.90;;;;;;5095794;28;20235;-65
2023/11/21 02:16:10;;;;;;;22.35;12.30;;;8.40;99.90;;;;;;5095383;28;20230;-65
2023/11/21 02:18:37;;;;;;;33.13;14.93;;;8.40;99.90;;;;;;5095453;28;20224;-64
2023/11/21 02:21:05;;;;;;;23.52;12.85;;;8.30;99.90;;;;;;5095692;28;20245;-65
2023/11/21 02:23:34;;;;;;;26.10;14.07;;;8.30;99.90;;;;;;5096176;28;20204;-64
2023/11/21 02:26:04;;;;;;;26.38;13.63;;;8.30;99.90;;;;;;5095289;28;20220;-64
2023/11/21 02:28:31;;;;;;;39.20;12.82;;;8.30;99.90;;;;;;5095339;28;20230;-65
2023/11/21 02:30:59;;;;;;;31.20;12.80;;;8.30;99.90;;;;;;5095193;28;20208;-64
2023/11/21 02:33:25;;;;;;;27.85;13.48;;;8.30;99.90;;;;;;5095141;28;20200;-64
2023/11/21 02:35:54;;;;;;;33.35;13.65;;;8.30;99.90;;;;;;5095468;28;20228;-64
2023/11/21 02:38:21;;;;;;;27.42;15.27;;;8.30;99.90;;;;;;5095411;28;20220;-65
2023/11/21 02:40:49;;;;;;;24.92;13.18;;;8.30;99.90;;;;;;5095098;28;20538;-65
2023/11/21 02:43:16;;;;;;;33.40;13.95;;;8.30;99.90;;;;;;5094891;28;20253;-64
2023/11/21 02:45:43;;;;;;;30.30;13.65;;;8.30;99.90;;;;;;5094698;28;20228;-64
2023/11/21 02:48:10;;;;;;;30.98;13.98;;;8.30;99.90;;;;;;5094608;28;20207;-65
2023/11/21 02:50:37;;;;;;;25.02;13.98;;;8.30;99.90;;;;;;5095266;28;20200;-66
2023/11/21 02:53:05;;;;;;;28.40;13.75;;;8.30;99.90;;;;;;5094428;28;20608;-65
2023/11/21 02:55:34;;;;;;;27.10;14.57;;;8.30;99.90;;;;;;5094905;28;20255;-64
2023/11/21 02:58:03;;;;;;;31.98;13.98;;;8.30;99.90;;;;;;5094750;28;20216;-64
2023/11/21 03:00:30;;;;;;;25.70;13.70;;;8.40;99.90;;;;;;5094924;28;20200;-64
2023/11/21 03:02:57;;;;;;;34.90;17.55;;;8.30;99.90;;;;;;5100030;22;20229;-65
2023/11/21 03:05:24;;;;;;;28.80;15.57;;;8.40;99.90;;;;;;5074342;28;20197;-63
2023/11/21 03:07:50;;;;;;;30.88;15.38;;;8.40;99.90;;;;;;5074020;28;20200;-64
2023/11/21 03:10:17;;;;;;;27.52;15.75;;;8.40;99.90;;;;;;5073716;28;20674;-65
2023/11/21 03:12:44;;;;;;;30.05;14.77;;;8.40;99.90;;;;;;5090137;28;20565;-65
2023/11/21 03:15:12;;;;;;;28.58;13.50;;;8.40;99.90;;;;;;5094230;28;20261;-65
2023/11/21 03:17:40;;;;;;;30.15;16.45;;;8.50;99.90;;;;;;5094355;28;20339;-66
2023/11/21 03:20:10;;;;;;;35.40;16.23;;;8.50;99.90;;;;;;5094482;28;20207;-64
2023/11/21 03:22:37;;;;;;;36.45;15.43;;;8.50;99.90;;;;;;5093975;28;20655;-64
2023/11/21 03:25:05;;;;;;;28.20;15.45;;;8.50;99.90;;;;;;5094061;28;20200;-65
2023/11/21 03:27:32;;;;;;;31.63;16.77;;;8.60;99.90;;;;;;5094094;28;20202;-63
2023/11/21 03:29:59;;;;;;;32.80;15.48;;;8.60;99.90;;;;;;5093898;28;20208;-64
2023/11/21 03:32:27;;;;;;;29.77;14.57;;;8.60;99.90;;;;;;5094128;28;20217;-63
2023/11/21 03:34:56;;;;;;;33.10;15.30;;;8.60;99.90;;;;;;5093956;28;20201;-63
2023/11/21 03:37:23;;;;;;;32.13;15.55;;;8.60;99.90;;;;;;5093750;28;20200;-64
2023/11/21 03:39:50;;;;;;;29.70;14.88;;;8.60;99.90;;;;;;5093795;28;20232;-64
2023/11/21 03:42:17;;;;;;;30.80;16.38;;;8.60;99.90;;;;;;5093705;28;20224;-63
2023/11/21 03:44:44;;;;;;;30.67;15.95;;;8.60;99.90;;;;;;5093559;28;20204;-64
2023/11/21 03:47:10;;;;;;;30.27;16.58;;;8.60;99.90;;;;;;5093427;28;20202;-65
2023/11/21 03:49:39;;;;;;;27.08;16.85;;;8.60;99.90;;;;;;5093675;28;20192;-64
2023/11/21 03:52:07;;;;;;;28.27;15.45;;;8.50;99.90;;;;;;5093531;28;20220;-64
2023/11/21 03:54:34;;;;;;;34.13;16.35;;;8.50;99.90;;;;;;5093531;28;20278;-64
2023/11/21 03:57:01;;;;;;;40.70;19.00;;;8.50;99.90;;;;;;5093369;28;20692;-65
2023/11/21 03:59:27;;;;;;;36.33;19.08;;;8.50;99.90;;;;;;5093827;28;20220;-64
2023/11/21 04:01:56;;;;;;;33.15;17.10;;;8.40;99.90;;;;;;5093895;28;20232;-64
2023/11/21 04:04:23;;;;;;;39.45;19.65;;;8.40;99.90;;;;;;5093985;28;20214;-64
2023/11/21 04:06:52;;;;;;;42.67;18.35;;;8.40;99.90;;;;;;5093431;28;20204;-63
2023/11/21 04:12:37;;;;;;;50.05;21.63;;;8.40;99.90;;;;;;5158049;27;20985;-64
2023/11/21 04:15:04;;;;;;;43.33;18.52;;;8.40;99.90;;;;;;5152569;27;20552;-63
2023/11/21 04:17:31;;;;;;;43.42;20.80;;;8.40;99.90;;;;;;5152117;27;20678;-64
2023/11/21 04:19:58;;;;;;;40.20;19.98;;;8.40;99.90;;;;;;5152310;27;20202;-64
2023/11/21 04:24:50;;;;;;;40.60;18.37;;;8.30;99.90;;;;;;5150511;22;20227;-63
2023/11/21 04:27:18;;;;;;;45.58;20.50;;;8.30;99.90;;;;;;5131769;28;20229;-64
2023/11/21 04:29:46;;;;;;;46.45;22.80;;;8.30;99.90;;;;;;5131123;28;20290;-63
2023/11/21 04:32:13;;;;;;;37.75;20.92;;;8.30;99.90;;;;;;5131461;28;20226;-62
2023/11/21 04:34:40;;;;;;;45.35;21.88;;;8.30;99.90;;;;;;5130825;28;20223;-63
2023/11/21 04:37:07;;;;;;;47.70;19.85;;;8.30;99.90;;;;;;5132077;28;20195;-63
2023/11/21 04:39:33;;;;;;;55.63;20.67;;;8.30;99.90;;;;;;5133219;28;20224;-64
2023/11/21 04:42:00;;;;;;;42.20;18.90;;;8.30;99.90;;;;;;5133394;28;20191;-65
2023/11/21 04:44:27;;;;;;;48.60;21.67;;;8.30;99.90;;;;;;5131843;28;20222;-63
2023/11/21 04:46:55;;;;;;;35.03;17.92;;;8.30;99.90;;;;;;5131688;28;20210;-64
2023/11/21 04:49:22;;;;;;;35.55;18.08;;;8.30;99.90;;;;;;5131161;28;20240;-64
2023/11/21 04:51:49;;;;;;;44.70;20.60;;;8.30;99.90;;;;;;5131070;28;20242;-64
2023/11/21 04:54:15;;;;;;;40.58;20.10;;;8.30;99.90;;;;;;5130667;28;20235;-64
2023/11/21 04:56:42;;;;;;;43.25;19.88;;;8.30;99.90;;;;;;5131738;28;20214;-64
2023/11/21 04:59:09;;;;;;;37.10;18.98;;;8.20;99.90;;;;;;5131219;28;20203;-64
2023/11/21 05:01:36;;;;;;;41.03;18.27;;;8.20;99.90;;;;;;5144815;22;20718;-62
2023/11/21 05:04:05;;;;;;;42.05;18.45;;;8.30;99.90;;;;;;5131748;28;20258;-62
2023/11/21 05:06:32;;;;;;;41.78;19.95;;;8.30;99.90;;;;;;5131599;28;20211;-62
2023/11/21 05:08:59;;;;;;;35.33;17.20;;;8.30;99.90;;;;;;5131274;28;20199;-61
2023/11/21 05:11:26;;;;;;;35.85;17.60;;;8.20;99.90;;;;;;5130838;28;20234;-63
2023/11/21 05:13:55;;;;;;;38.35;16.35;;;8.20;99.90;;;;;;5131246;28;20203;-62
2023/11/21 05:16:22;;;;;;;37.30;16.77;;;8.20;99.90;;;;;;5130760;28;20206;-63
2023/11/21 05:18:50;;;;;;;35.70;16.55;;;8.20;99.90;;;;;;5131061;28;20285;-63
2023/11/21 05:21:20;;;;;;;32.85;16.90;;;8.20;99.90;;;;;;5130521;28;20700;-63
2023/11/21 05:23:47;;;;;;;35.58;16.38;;;8.20;99.90;;;;;;5118065;28;20261;-64
2023/11/21 05:26:14;;;;;;;35.28;17.75;;;8.20;99.90;;;;;;5117152;28;20202;-62
2023/11/21 05:28:41;;;;;;;38.95;16.38;;;8.20;99.90;;;;;;5116812;28;20207;-62
2023/11/21 05:31:07;;;;;;;31.92;13.85;;;8.20;99.90;;;;;;5117372;28;20223;-63
2023/11/21 05:33:34;;;;;;;31.38;13.25;;;8.20;99.90;;;;;;5116498;28;20200;-63
2023/11/21 05:36:01;;;;;;;29.48;14.70;;;8.20;99.90;;;;;;5116761;28;20203;-62
2023/11/21 05:38:29;;;;;;;28.42;13.70;;;8.20;99.90;;;;;;5116800;28;20214;-61
2023/11/21 05:40:56;;;;;;;33.85;14.38;;;8.20;99.90;;;;;;5116921;28;20195;-60
2023/11/21 05:43:25;;;;;;;30.85;14.93;;;8.20;99.90;;;;;;5116813;28;20680;-62
2023/11/21 05:45:52;;;;;;;29.17;14.10;;;8.20;99.90;;;;;;5116853;28;20195;-62
2023/11/21 05:48:18;;;;;;;25.05;13.45;;;8.10;99.90;;;;;;5116638;28;20222;-62
2023/11/21 05:50:45;;;;;;;26.27;14.23;;;8.20;99.90;;;;;;5116791;28;20534;-63
2023/11/21 05:53:12;;;;;;;26.80;12.75;;;8.20;99.90;;;;;;5116866;28;20200;-63
2023/11/21 05:55:40;;;;;;;27.23;12.90;;;8.20;99.90;;;;;;5118387;28;20572;-61
2023/11/21 05:58:07;;;;;;;22.90;11.15;;;8.20;99.90;;;;;;5118546;28;20201;-61
2023/11/21 06:00:34;;;;;;;23.02;12.10;;;8.20;99.90;;;;;;5117306;28;20294;-61
2023/11/21 06:03:00;;;;;;;26.65;11.88;;;8.10;99.90;;;;;;5116220;28;20228;-61
2023/11/21 06:05:28;;;;;;;22.98;11.20;;;8.10;99.90;;;;;;5116008;28;20274;-63
2023/11/21 06:07:58;;;;;;;16.50;8.05;;;8.10;99.90;;;;;;5115702;28;20214;-61
2023/11/21 06:10:25;;;;;;;19.42;10.48;;;8.10;99.90;;;;;;5122426;28;20184;-63
2023/11/21 06:12:53;;;;;;;19.85;10.57;;;8.10;99.90;;;;;;5121373;28;20306;-61
2023/11/21 06:15:22;;;;;;;24.02;10.10;;;8.10;99.90;;;;;;5116962;28;20200;-63
2023/11/21 06:17:51;;;;;;;18.70;11.10;;;8.10;99.90;;;;;;5115669;28;20707;-61
2023/11/21 06:20:19;;;;;;;19.88;11.15;;;8.10;99.90;;;;;;5116132;28;20230;-62
2023/11/21 06:22:49;;;;;;;21.80;11.52;;;8.10;99.90;;;;;;5115798;28;20220;-61
2023/11/21 06:25:15;;;;;;;21.98;10.98;;;8.10;99.90;;;;;;5117966;28;20223;-63
2023/11/21 06:27:44;;;;;;;18.23;10.90;;;8.20;99.90;;;;;;5117144;28;20207;-62
2023/11/21 06:30:15;;;;;;;22.35;12.32;;;8.10;99.90;;;;;;5115925;28;20203;-62
2023/11/21 06:32:45;;;;;;;19.35;10.90;;;8.20;99.90;;;;;;5115467;28;20311;-62
2023/11/21 06:35:13;;;;;;;21.65;11.90;;;8.20;99.90;;;;;;5114372;28;20188;-62
2023/11/21 06:37:40;;;;;;;19.13;11.57;;;8.20;99.90;;;;;;5115858;28;20264;-63
2023/11/21 06:40:09;;;;;;;20.65;11.32;;;8.20;99.90;;;;;;5115267;28;20200;-62
2023/11/21 06:42:38;;;;;;;22.33;11.90;;;8.10;99.90;;;;;;5114943;28;20697;-63
2023/11/21 06:45:05;;;;;;;18.20;10.95;;;8.20;99.90;;;;;;5115328;28;20235;-62
2023/11/21 06:47:33;;;;;;;14.48;9.27;;;8.20;99.90;;;;;;5115132;28;20206;-62
2023/11/21 06:50:00;;;;;;;15.55;8.55;;;8.10;99.90;;;;;;5116004;28;20206;-61
2023/11/21 06:52:27;;;;;;;15.15;9.02;;;7.90;99.90;;;;;;5114954;28;20280;-62
2023/11/21 06:54:54;;;;;;;14.35;8.95;;;7.70;99.90;;;;;;5114443;28;20210;-62
2023/11/21 06:57:21;;;;;;;14.15;8.93;;;7.60;99.90;;;;;;5115246;28;20199;-62
2023/11/21 06:59:48;;;;;;;14.80;8.98;;;7.50;99.90;;;;;;5114959;28;20206;-63
2023/11/21 07:02:18;;;;;;;13.25;8.35;;;7.40;99.90;;;;;;5114552;28;20314;-62
2023/11/21 07:04:46;;;;;;;16.13;9.13;;;7.30;99.90;;;;;;5115940;28;20200;-62
2023/11/21 07:07:13;;;;;;;13.85;8.48;;;7.20;99.90;;;;;;5114723;28;20616;-62
2023/11/21 07:09:40;;;;;;;11.40;8.23;;;7.20;99.90;;;;;;5115802;28;20206;-65
2023/11/21 07:12:07;;;;;;;15.27;8.00;;;7.10;99.90;;;;;;5115667;28;20223;-67
2023/11/21 07:14:34;;;;;;;9.77;7.45;;;7.10;99.90;;;;;;5115275;28;20629;-62
2023/11/21 07:17:01;;;;;;;12.60;7.25;;;7.00;99.90;;;;;;5114740;28;20206;-62
2023/11/21 07:19:28;;;;;;;10.65;7.90;;;6.90;99.90;;;;;;5114860;28;20204;-63
2023/11/21 07:21:57;;;;;;;8.38;6.38;;;6.90;99.90;;;;;;5114398;28;20245;-62
2023/11/21 07:24:23;;;;;;;10.57;8.20;;;6.90;99.90;;;;;;5120382;28;20204;-62
2023/11/21 07:26:50;;;;;;;11.75;8.65;;;6.90;99.90;;;;;;5118210;28;20200;-62
2023/11/21 07:29:17;;;;;;;10.63;7.72;;;6.90;99.90;;;;;;5116523;28;20572;-61
2023/11/21 07:31:44;;;;;;;11.07;7.47;;;6.80;99.90;;;;;;5115071;28;20312;-62
2023/11/21 07:34:12;;;;;;;13.45;7.70;;;6.80;99.90;;;;;;5114370;28;20669;-61
2023/11/21 07:36:38;;;;;;;12.85;7.65;;;6.80;99.90;;;;;;5114679;28;20282;-61
2023/11/21 07:39:06;;;;;;;11.82;8.35;;;6.80;99.90;;;;;;5114404;28;20688;-62
2023/11/21 07:41:33;;;;;;;10.77;7.38;;;6.80;99.90;;;;;;5114942;28;20341;-62
2023/11/21 07:44:00;;;;;;;13.35;6.72;;;6.80;99.90;;;;;;5114731;28;20305;-61
2023/11/21 07:46:27;;;;;;;10.90;7.20;;;6.80;99.90;;;;;;5114402;28;20291;-61
2023/11/21 07:48:53;;;;;;;10.93;7.10;;;6.80;99.90;;;;;;5114175;28;20195;-62
2023/11/21 07:51:20;;;;;;;10.50;8.17;;;6.80;99.90;;;;;;5114109;28;20226;-60
2023/11/21 07:53:46;;;;;;;11.20;7.65;;;6.80;99.90;;;;;;5114233;28;20246;-62
2023/11/21 07:56:14;;;;;;;12.13;8.32;;;6.80;99.90;;;;;;5114103;28;20211;-62
2023/11/21 07:58:41;;;;;;;11.00;8.25;;;6.70;99.90;;;;;;5113666;28;20203;-62
2023/11/21 08:01:08;;;;;;;10.60;8.27;;;6.80;99.90;;;;;;5113841;28;20224;-61
2023/11/21 08:03:35;;;;;;;11.50;8.50;;;6.80;99.90;;;;;;5114314;28;20552;-61
2023/11/21 08:06:03;;;;;;;10.40;8.48;;;6.70;99.90;;;;;;5113709;28;20696;-63
2023/11/21 08:08:30;;;;;;;16.00;9.70;;;6.70;99.90;;;;;;5114187;28;20578;-63
2023/11/21 08:10:57;;;;;;;14.82;10.27;;;6.70;99.90;;;;;;5114245;28;20256;-63
2023/11/21 08:13:26;;;;;;;18.58;10.75;;;6.60;99.90;;;;;;5116488;28;20219;-61
2023/11/21 08:15:56;;;;;;;15.35;11.00;;;6.60;99.90;;;;;;5124584;28;20568;-62
2023/11/21 08:18:23;;;;;;;15.18;9.55;;;6.60;99.90;;;;;;5115050;28;20206;-62
2023/11/21 08:20:49;;;;;;;15.27;11.10;;;6.60;99.90;;;;;;5114024;28;20207;-63
2023/11/21 08:23:17;;;;;;;16.13;10.05;;;6.60;99.90;;;;;;5115958;28;20532;-61
2023/11/21 08:25:44;;;;;;;16.70;10.40;;;6.60;99.90;;;;;;5115921;28;20264;-61
2023/11/21 08:28:11;;;;;;;14.60;10.75;;;6.70;99.90;;;;;;5114879;28;20203;-63
2023/11/21 08:30:41;;;;;;;15.15;10.68;;;6.70;99.90;;;;;;5115386;28;20207;-62
2023/11/21 08:33:08;;;;;;;16.95;11.65;;;6.60;99.90;;;;;;5113419;28;20216;-62
2023/11/21 08:35:36;;;;;;;17.73;12.10;;;6.70;99.90;;;;;;5113916;28;20226;-63
2023/11/21 08:38:02;;;;;;;16.35;12.02;;;6.70;99.90;;;;;;5114072;28;20211;-63
2023/11/21 08:40:29;;;;;;;18.88;12.60;;;6.70;99.90;;;;;;5114452;28;20211;-62
2023/11/21 08:42:58;;;;;;;18.40;11.80;;;6.70;99.90;;;;;;5113302;28;20219;-62
2023/11/21 08:45:25;;;;;;;17.70;12.63;;;6.80;99.90;;;;;;5113354;28;20647;-62
2023/11/21 08:47:53;;;;;;;22.70;13.25;;;6.80;99.90;;;;;;5113878;28;20203;-62
2023/11/21 08:50:20;;;;;;;15.25;11.23;;;6.80;99.90;;;;;;5115133;28;20210;-63
2023/11/21 08:52:48;;;;;;;15.57;11.57;;;6.80;99.90;;;;;;5113571;28;20593;-63
2023/11/21 08:55:15;;;;;;;16.65;11.30;;;6.80;99.90;;;;;;5113603;28;20200;-61
2023/11/21 08:57:45;;;;;;;14.90;11.25;;;6.90;99.90;;;;;;5115119;28;20688;-62
2023/11/21 09:00:12;;;;;;;15.88;11.02;;;6.90;99.90;;;;;;5119844;28;20272;-62
2023/11/21 09:02:41;;;;;;;16.75;11.80;;;6.90;99.90;;;;;;5117223;28;20219;-62
2023/11/21 09:05:11;;;;;;;16.70;10.77;;;6.90;99.90;;;;;;5118000;28;20199;-62
2023/11/21 09:07:38;;;;;;;13.48;10.60;;;7.00;99.90;;;;;;5116936;28;20199;-63
2023/11/21 09:10:09;;;;;;;11.07;9.50;;;7.10;99.90;;;;;;5117595;28;20199;-63
2023/11/21 09:12:37;;;;;;;10.43;8.57;;;7.10;99.90;;;;;;5118368;28;20226;-62
2023/11/21 09:15:05;;;;;;;13.73;10.15;;;7.10;99.90;;;;;;5118226;28;20249;-61
2023/11/21 09:17:31;;;;;;;12.77;9.60;;;7.10;99.90;;;;;;5118153;28;20199;-62
2023/11/21 09:19:58;;;;;;;14.45;10.00;;;7.10;99.90;;;;;;5117186;28;20680;-62
2023/11/21 09:22:27;;;;;;;11.10;8.30;;;7.20;99.90;;;;;;5118139;28;20220;-62
2023/11/21 09:24:53;;;;;;;14.35;10.05;;;7.10;99.90;;;;;;5117050;28;20204;-63
2023/11/21 09:27:21;;;;;;;12.98;9.57;;;7.20;99.90;;;;;;5117028;28;20211;-63
2023/11/21 09:29:48;;;;;;;14.35;9.90;;;7.20;99.90;;;;;;5116702;28;20206;-62
2023/11/21 09:32:16;;;;;;;10.55;8.40;;;7.30;99.90;;;;;;5117241;28;20219;-63
2023/11/21 09:34:43;;;;;;;12.98;8.95;;;7.30;99.90;;;;;;5116796;28;20234;-62
2023/11/21 09:37:09;;;;;;;10.15;7.82;;;7.30;99.90;;;;;;5116998;28;20204;-62
2023/11/21 09:39:39;;;;;;;13.60;9.15;;;7.30;99.90;;;;;;5116986;28;20200;-62
2023/11/21 09:42:10;;;;;;;10.15;7.60;;;7.30;99.90;;;;;;5116894;28;20245;-62
2023/11/21 09:44:47;;;;;;;11.75;8.98;;;7.30;99.90;;;;;;5116746;28;20212;-61
2023/11/21 09:47:17;;;;;;;11.73;8.50;;;7.20;99.90;;;;;;5117114;28;20330;-62
2023/11/21 09:49:49;;;;;;;9.32;8.40;;;7.20;99.90;;;;;;5116936;28;20602;-62
2023/11/21 09:52:25;;;;;;;11.43;8.40;;;7.20;99.90;;;;;;5116565;28;20223;-63
2023/11/21 09:54:54;;;;;;;11.30;8.60;;;7.20;99.90;;;;;;5116672;28;20194;-62
2023/11/21 09:57:22;;;;;;;8.57;7.25;;;7.20;99.90;;;;;;5116906;28;20213;-62
2023/11/21 09:59:54;;;;;;;8.77;7.80;;;7.20;99.90;;;;;;5121456;28;20519;-62
2023/11/21 10:02:25;;;;;;;9.45;7.70;;;7.20;99.90;;;;;;5120708;28;20709;-63
2023/11/21 10:04:52;;;;;;;9.27;6.90;;;7.20;99.90;;;;;;5118212;28;20257;-64
2023/11/21 10:07:21;;;;;;;12.15;8.88;;;7.20;99.90;;;;;;5116565;28;20202;-63
2023/11/21 10:09:48;;;;;;;13.82;8.90;;;7.20;99.90;;;;;;5116241;28;20227;-62
2023/11/21 10:12:17;;;;;;;11.60;8.15;;;7.20;99.90;;;;;;5116269;28;20272;-62
2023/11/21 10:14:47;;;;;;;10.48;8.55;;;7.30;99.90;;;;;;5116195;28;20574;-62
2023/11/21 10:17:18;;;;;;;8.05;7.25;;;7.40;99.90;;;;;;5116193;28;20192;-62
2023/11/21 10:19:48;;;;;;;11.48;8.40;;;7.50;99.90;;;;;;5120163;28;20261;-62
2023/11/21 10:22:16;;;;;;;8.82;6.57;;;7.50;99.90;;;;;;5128726;28;20237;-62
2023/11/21 10:24:43;;;;;;;9.35;7.57;;;7.60;99.90;;;;;;5116645;28;20200;-64
2023/11/21 10:27:10;;;;;;;9.07;6.93;;;7.70;99.90;;;;;;5116115;28;20200;-62
2023/11/21 10:29:39;;;;;;;10.35;7.10;;;7.70;99.90;;;;;;5116455;28;20207;-64
2023/11/21 10:32:07;;;;;;;10.10;7.35;;;7.70;99.90;;;;;;5115972;28;20231;-62
2023/11/21 10:34:34;;;;;;;8.93;6.80;;;7.70;99.90;;;;;;5115793;28;20199;-62
2023/11/21 10:37:12;;;;;;;9.02;6.55;;;7.70;99.90;;;;;;5115896;28;20207;-62
2023/11/21 10:39:40;;;;;;;8.27;6.88;;;7.60;99.90;;;;;;5115642;28;20191;-63
2023/11/21 10:42:10;;;;;;;8.07;6.85;;;7.60;99.90;;;;;;5115840;28;20234;-62
2023/11/21 10:44:38;;;;;;;10.27;6.68;;;7.60;99.90;;;;;;5115146;28;20222;-64
2023/11/21 10:47:05;;;;;;;8.98;6.05;;;7.60;99.90;;;;;;5115674;28;20231;-61
2023/11/21 10:49:31;;;;;;;8.02;6.15;;;7.60;99.90;;;;;;5116162;28;20225;-63
2023/11/21 10:51:58;;;;;;;8.23;6.28;;;7.70;99.90;;;;;;5118240;28;20248;-62
2023/11/21 10:54:26;;;;;;;7.00;5.78;;;7.70;99.90;;;;;;5117290;28;20307;-60
2023/11/21 10:56:57;;;;;;;9.18;6.70;;;7.70;99.90;;;;;;5115575;28;20591;-62
2023/11/21 10:59:26;;;;;;;9.20;7.55;;;7.60;99.90;;;;;;5116014;28;20188;-63
2023/11/21 11:01:55;;;;;;;7.72;6.18;;;7.60;99.90;;;;;;5115430;28;20255;-62
2023/11/21 11:04:23;;;;;;;10.70;7.45;;;7.60;99.90;;;;;;5114950;28;20199;-63
2023/11/21 11:06:56;;;;;;;7.85;5.97;;;7.70;99.90;;;;;;5115188;28;20195;-62
2023/11/21 11:09:23;;;;;;;7.70;5.68;;;7.70;99.90;;;;;;5114934;28;20221;-63
2023/11/21 11:11:52;;;;;;;8.43;6.10;;;7.70;99.90;;;;;;5114697;28;20669;-62
2023/11/21 11:14:24;;;;;;;6.88;5.63;;;7.70;99.90;;;;;;5114628;28;20677;-63
2023/11/21 11:16:52;;;;;;;8.13;6.18;;;7.70;99.90;;;;;;5115665;28;20195;-63
2023/11/21 11:19:20;;;;;;;6.20;5.38;;;7.70;99.90;;;;;;5115017;28;20563;-61
2023/11/21 11:21:57;;;;;;;6.13;5.53;;;7.80;99.90;;;;;;5114722;28;20276;-64
2023/11/21 11:24:37;;;;;;;8.43;6.50;;;7.80;99.90;;;;;;5115213;28;20183;-63
2023/11/21 11:27:16;;;;;;;8.45;6.68;;;7.80;99.90;;;;;;5115065;28;20183;-63
2023/11/21 11:29:52;;;;;;;6.55;5.72;;;7.80;99.90;;;;;;5114747;28;20191;-62
2023/11/21 11:32:30;;;;;;;9.63;6.65;;;7.90;99.90;;;;;;5114327;28;20372;-62
2023/11/21 11:35:06;;;;;;;7.90;5.95;;;8.00;99.90;;;;;;5114916;28;20180;-63
2023/11/21 11:37:33;;;;;;;5.88;4.75;;;8.10;99.90;;;;;;5114317;28;20191;-62
2023/11/21 11:40:00;;;;;;;7.57;5.97;;;8.20;99.90;;;;;;5114566;28;20199;-62
2023/11/21 11:42:29;;;;;;;7.13;6.25;;;8.20;99.90;;;;;;5114826;28;20220;-61
2023/11/21 11:44:57;;;;;;;7.30;6.43;;;8.10;99.90;;;;;;5114399;28;20226;-61
2023/11/21 11:47:27;;;;;;;6.60;5.25;;;8.00;99.90;;;;;;5114418;28;20196;-63
2023/11/21 11:50:13;;;;;;;6.22;5.38;;;7.90;99.90;;;;;;5114937;28;20207;-62
2023/11/21 11:52:41;;;;;;;6.93;4.88;;;7.80;99.90;;;;;;5114012;28;20225;-62
2023/11/21 11:55:10;;;;;;;7.60;5.35;;;7.80;99.90;;;;;;5114620;28;20201;-62
2023/11/21 11:57:38;;;;;;;9.00;5.68;;;7.80;99.90;;;;;;5115338;28;20210;-62
2023/11/21 12:00:24;;;;;;;6.85;5.72;;;7.80;99.90;;;;;;5114334;28;20234;-63
2023/11/21 12:02:53;;;;;;;6.13;5.47;;;7.80;99.90;;;;;;5114236;28;20322;-61
2023/11/21 12:05:23;;;;;;;6.32;5.57;;;7.80;99.90;;;;;;5114585;28;20215;-61
2023/11/21 12:07:52;;;;;;;7.70;5.45;;;7.80;99.90;;;;;;5114432;28;20195;-62
2023/11/21 12:10:20;;;;;;;6.80;6.20;;;7.90;99.90;;;;;;5114105;28;20207;-62
2023/11/21 12:12:49;;;;;;;6.30;5.10;;;8.00;99.90;;;;;;5114419;28;20231;-63
2023/11/21 12:15:16;;;;;;;5.82;5.22;;;8.10;99.90;;;;;;5114266;28;20207;-63
2023/11/21 12:17:44;;;;;;;6.50;5.15;;;8.20;99.90;;;;;;5114417;28;20218;-62
2023/11/21 12:20:15;;;;;;;6.10;5.50;;;8.20;99.90;;;;;;5114773;28;20195;-61
2023/11/21 12:22:48;;;;;;;7.35;4.95;;;8.20;99.90;;;;;;5114991;28;20598;-63
2023/11/21 12:25:18;;;;;;;5.53;5.00;;;8.30;99.90;;;;;;5116777;28;20244;-63
2023/11/21 12:27:46;;;;;;;5.07;4.68;;;8.30;99.90;;;;;;5123897;28;20211;-63
2023/11/21 12:30:15;;;;;;;7.68;4.38;;;8.30;99.90;;;;;;5115074;28;20199;-63
2023/11/21 12:32:42;;;;;;;4.80;4.40;;;8.30;99.90;;;;;;5115240;28;20258;-62
2023/11/21 12:35:10;;;;;;;4.78;4.20;;;8.30;99.90;;;;;;5125855;28;20692;-61
2023/11/21 12:37:38;;;;;;;5.38;4.78;;;8.20;99.90;;;;;;5127758;28;20204;-63
2023/11/21 12:40:11;;;;;;;5.15;4.35;;;8.10;99.90;;;;;;5119556;28;20583;-62
2023/11/21 12:42:38;;;;;;;6.93;4.53;;;8.00;99.90;;;;;;5118173;28;20219;-62
2023/11/21 12:45:14;;;;;;;4.57;4.03;;;7.90;99.90;;;;;;5117750;28;20200;-61
2023/11/21 12:47:41;;;;;;;5.78;5.18;;;7.90;99.90;;;;;;5118013;28;20188;-63
2023/11/21 12:50:14;;;;;;;7.13;4.63;;;7.80;99.90;;;;;;5117730;28;20549;-62
2023/11/21 12:52:43;;;;;;;8.23;4.78;;;7.80;99.90;;;;;;5118104;28;20716;-63